sensor_id;sensor_type;location;lat;lon;timestamp;P1;durP1;ratioP1;P2;durP2;ratioP2
74808;SDS011;63338;39.544;2.596;2022-11-02T00:00:28;11.88;;;5.47;;
74808;SDS011;63338;39.544;2.596;2022-11-02T00:02:55;14.88;;;5.35;;
74808;SDS011;63338;39.544;2.596;2022-11-02T00:05:30;14.27;;;5.63;;
74808;SDS011;63338;39.544;2.596;2022-11-02T00:07:57;13.98;;;4.85;;
74808;SDS011;63338;39.544;2.596;2022-11-02T00:10:23;12.27;;;5.07;;
74808;SDS011;63338;39.544;2.596;2022-11-02T00:12:50;15.93;;;4.78;;
74808;SDS011;63338;39.544;2.596;2022-11-02T00:15:16;11.65;;;5.10;;
74808;SDS011;63338;39.544;2.596;2022-11-02T00:17:44;16.50;;;4.43;;
74808;SDS011;63338;39.544;2.596;2022-11-02T00:20:14;8.15;;;4.00;;
74808;SDS011;63338;39.544;2.596;2022-11-02T00:22:46;11.68;;;5.13;;
74808;SDS011;63338;39.544;2.596;2022-11-02T00:25:22;12.25;;;4.30;;
74808;SDS011;63338;39.544;2.596;2022-11-02T00:27:49;9.73;;;4.03;;
74808;SDS011;63338;39.544;2.596;2022-11-02T00:30:15;12.65;;;4.47;;
74808;SDS011;63338;39.544;2.596;2022-11-02T00:32:42;12.35;;;4.25;;
74808;SDS011;63338;39.544;2.596;2022-11-02T00:35:08;13.43;;;4.00;;
74808;SDS011;63338;39.544;2.596;2022-11-02T00:37:34;8.60;;;4.03;;
74808;SDS011;63338;39.544;2.596;2022-11-02T00:40:04;11.10;;;3.88;;
74808;SDS011;63338;39.544;2.596;2022-11-02T00:42:33;8.77;;;3.67;;
74808;SDS011;63338;39.544;2.596;2022-11-02T00:45:03;9.77;;;3.70;;
74808;SDS011;63338;39.544;2.596;2022-11-02T00:47:33;10.50;;;4.13;;
74808;SDS011;63338;39.544;2.596;2022-11-02T00:49:59;12.00;;;3.50;;
74808;SDS011;63338;39.544;2.596;2022-11-02T00:52:28;9.15;;;3.42;;
74808;SDS011;63338;39.544;2.596;2022-11-02T00:54:54;8.88;;;3.30;;
74808;SDS011;63338;39.544;2.596;2022-11-02T00:57:20;11.40;;;3.83;;
74808;SDS011;63338;39.544;2.596;2022-11-02T00:59:46;10.30;;;3.53;;
74808;SDS011;63338;39.544;2.596;2022-11-02T01:02:13;7.97;;;3.47;;
74808;SDS011;63338;39.544;2.596;2022-11-02T01:04:39;9.68;;;3.58;;
74808;SDS011;63338;39.544;2.596;2022-11-02T01:07:05;13.98;;;3.65;;
74808;SDS011;63338;39.544;2.596;2022-11-02T01:09:32;8.07;;;3.20;;
74808;SDS011;63338;39.544;2.596;2022-11-02T01:12:09;9.35;;;3.72;;
74808;SDS011;63338;39.544;2.596;2022-11-02T01:14:38;13.07;;;3.67;;
74808;SDS011;63338;39.544;2.596;2022-11-02T01:17:05;12.02;;;3.50;;
74808;SDS011;63338;39.544;2.596;2022-11-02T01:19:33;9.45;;;3.38;;
74808;SDS011;63338;39.544;2.596;2022-11-02T01:21:59;10.13;;;3.53;;
74808;SDS011;63338;39.544;2.596;2022-11-02T01:24:26;9.02;;;3.15;;
74808;SDS011;63338;39.544;2.596;2022-11-02T01:26:52;9.55;;;3.50;;
74808;SDS011;63338;39.544;2.596;2022-11-02T01:29:18;11.02;;;3.20;;
74808;SDS011;63338;39.544;2.596;2022-11-02T01:31:45;11.52;;;3.17;;
74808;SDS011;63338;39.544;2.596;2022-11-02T01:34:13;9.00;;;2.92;;
74808;SDS011;63338;39.544;2.596;2022-11-02T01:36:40;10.85;;;3.33;;
74808;SDS011;63338;39.544;2.596;2022-11-02T01:39:10;10.75;;;3.47;;
74808;SDS011;63338;39.544;2.596;2022-11-02T01:41:36;7.28;;;2.90;;
74808;SDS011;63338;39.544;2.596;2022-11-02T01:44:21;9.65;;;3.10;;
74808;SDS011;63338;39.544;2.596;2022-11-02T01:46:59;11.55;;;2.85;;
74808;SDS011;63338;39.544;2.596;2022-11-02T01:49:36;8.80;;;3.42;;
74808;SDS011;63338;39.544;2.596;2022-11-02T01:54:58;11.63;;;3.00;;
74808;SDS011;63338;39.544;2.596;2022-11-02T01:57:30;13.20;;;2.97;;
74808;SDS011;63338;39.544;2.596;2022-11-02T02:00:03;10.18;;;3.28;;
74808;SDS011;63338;39.544;2.596;2022-11-02T02:02:54;13.25;;;3.03;;
74808;SDS011;63338;39.544;2.596;2022-11-02T02:05:44;12.32;;;3.10;;
74808;SDS011;63338;39.544;2.596;2022-11-02T02:08:31;10.05;;;3.00;;
74808;SDS011;63338;39.544;2.596;2022-11-02T02:11:19;7.85;;;2.75;;
74808;SDS011;63338;39.544;2.596;2022-11-02T02:14:24;9.38;;;2.88;;
74808;SDS011;63338;39.544;2.596;2022-11-02T02:22:35;14.40;;;2.88;;
74808;SDS011;63338;39.544;2.596;2022-11-02T02:25:22;11.05;;;3.17;;
74808;SDS011;63338;39.544;2.596;2022-11-02T02:30:36;8.57;;;2.95;;
74808;SDS011;63338;39.544;2.596;2022-11-02T02:33:12;10.73;;;3.47;;
74808;SDS011;63338;39.544;2.596;2022-11-02T02:35:51;9.75;;;3.20;;
74808;SDS011;63338;39.544;2.596;2022-11-02T02:41:25;13.52;;;3.42;;
74808;SDS011;63338;39.544;2.596;2022-11-02T02:43:55;8.60;;;3.50;;
74808;SDS011;63338;39.544;2.596;2022-11-02T02:46:28;10.27;;;3.30;;
74808;SDS011;63338;39.544;2.596;2022-11-02T02:49:04;13.15;;;3.38;;
74808;SDS011;63338;39.544;2.596;2022-11-02T02:51:42;11.43;;;3.60;;
74808;SDS011;63338;39.544;2.596;2022-11-02T02:54:15;12.85;;;3.63;;
74808;SDS011;63338;39.544;2.596;2022-11-02T02:56:56;9.65;;;3.60;;
74808;SDS011;63338;39.544;2.596;2022-11-02T02:59:43;9.90;;;3.55;;
74808;SDS011;63338;39.544;2.596;2022-11-02T03:02:15;8.98;;;3.75;;
74808;SDS011;63338;39.544;2.596;2022-11-02T03:04:49;10.73;;;4.00;;
74808;SDS011;63338;39.544;2.596;2022-11-02T03:07:18;10.20;;;3.92;;
74808;SDS011;63338;39.544;2.596;2022-11-02T03:12:21;13.25;;;3.70;;
74808;SDS011;63338;39.544;2.596;2022-11-02T03:15:08;12.82;;;4.03;;
74808;SDS011;63338;39.544;2.596;2022-11-02T03:17:54;11.32;;;3.80;;
74808;SDS011;63338;39.544;2.596;2022-11-02T03:33:47;9.10;;;3.58;;
74808;SDS011;63338;39.544;2.596;2022-11-02T03:36:19;10.32;;;3.63;;
74808;SDS011;63338;39.544;2.596;2022-11-02T03:38:56;8.25;;;4.10;;
74808;SDS011;63338;39.544;2.596;2022-11-02T03:41:40;8.48;;;3.53;;
74808;SDS011;63338;39.544;2.596;2022-11-02T03:44:10;7.07;;;3.60;;
74808;SDS011;63338;39.544;2.596;2022-11-02T03:46:40;9.07;;;3.78;;
74808;SDS011;63338;39.544;2.596;2022-11-02T03:49:11;12.80;;;3.83;;
74808;SDS011;63338;39.544;2.596;2022-11-02T03:51:43;12.65;;;4.20;;
74808;SDS011;63338;39.544;2.596;2022-11-02T03:54:22;10.77;;;3.92;;
74808;SDS011;63338;39.544;2.596;2022-11-02T03:56:57;8.57;;;4.03;;
74808;SDS011;63338;39.544;2.596;2022-11-02T03:59:31;10.90;;;3.83;;
74808;SDS011;63338;39.544;2.596;2022-11-02T04:01:58;10.07;;;4.03;;
74808;SDS011;63338;39.544;2.596;2022-11-02T04:04:25;11.02;;;4.15;;
74808;SDS011;63338;39.544;2.596;2022-11-02T04:06:51;9.52;;;3.90;;
74808;SDS011;63338;39.544;2.596;2022-11-02T04:09:18;10.48;;;4.53;;
74808;SDS011;63338;39.544;2.596;2022-11-02T04:11:44;10.05;;;4.20;;
74808;SDS011;63338;39.544;2.596;2022-11-02T04:14:29;10.57;;;4.57;;
74808;SDS011;63338;39.544;2.596;2022-11-02T04:17:06;11.65;;;4.63;;
74808;SDS011;63338;39.544;2.596;2022-11-02T04:19:53;10.32;;;4.22;;
74808;SDS011;63338;39.544;2.596;2022-11-02T04:22:20;10.32;;;4.75;;
74808;SDS011;63338;39.544;2.596;2022-11-02T04:25:06;12.38;;;4.63;;
74808;SDS011;63338;39.544;2.596;2022-11-02T04:27:51;9.88;;;4.40;;
74808;SDS011;63338;39.544;2.596;2022-11-02T04:30:19;13.15;;;4.93;;
74808;SDS011;63338;39.544;2.596;2022-11-02T04:32:47;12.45;;;4.90;;
74808;SDS011;63338;39.544;2.596;2022-11-02T04:35:33;11.40;;;4.95;;
74808;SDS011;63338;39.544;2.596;2022-11-02T04:38:00;12.02;;;4.22;;
74808;SDS011;63338;39.544;2.596;2022-11-02T04:41:03;9.95;;;4.55;;
74808;SDS011;63338;39.544;2.596;2022-11-02T04:43:48;10.10;;;4.82;;
74808;SDS011;63338;39.544;2.596;2022-11-02T04:46:14;9.27;;;4.68;;
74808;SDS011;63338;39.544;2.596;2022-11-02T04:48:40;8.63;;;4.60;;
74808;SDS011;63338;39.544;2.596;2022-11-02T04:51:07;11.77;;;4.93;;
74808;SDS011;63338;39.544;2.596;2022-11-02T04:53:33;10.55;;;4.70;;
74808;SDS011;63338;39.544;2.596;2022-11-02T04:55:59;13.50;;;5.20;;
74808;SDS011;63338;39.544;2.596;2022-11-02T04:58:25;12.00;;;5.15;;
74808;SDS011;63338;39.544;2.596;2022-11-02T05:00:52;16.88;;;5.43;;
74808;SDS011;63338;39.544;2.596;2022-11-02T05:03:18;10.15;;;5.28;;
74808;SDS011;63338;39.544;2.596;2022-11-02T05:05:44;16.30;;;6.00;;
74808;SDS011;63338;39.544;2.596;2022-11-02T05:08:10;11.43;;;5.55;;
74808;SDS011;63338;39.544;2.596;2022-11-02T05:10:36;11.88;;;5.15;;
74808;SDS011;63338;39.544;2.596;2022-11-02T05:13:06;14.25;;;5.05;;
74808;SDS011;63338;39.544;2.596;2022-11-02T05:15:39;12.77;;;5.32;;
74808;SDS011;63338;39.544;2.596;2022-11-02T05:18:08;13.73;;;4.97;;
74808;SDS011;63338;39.544;2.596;2022-11-02T05:20:34;15.93;;;5.45;;
74808;SDS011;63338;39.544;2.596;2022-11-02T05:23:01;14.70;;;5.70;;
74808;SDS011;63338;39.544;2.596;2022-11-02T05:25:27;10.13;;;5.28;;
74808;SDS011;63338;39.544;2.596;2022-11-02T05:27:54;12.70;;;5.35;;
74808;SDS011;63338;39.544;2.596;2022-11-02T05:30:21;12.07;;;5.40;;
74808;SDS011;63338;39.544;2.596;2022-11-02T05:32:47;14.55;;;5.10;;
74808;SDS011;63338;39.544;2.596;2022-11-02T05:35:14;12.20;;;5.55;;
74808;SDS011;63338;39.544;2.596;2022-11-02T05:37:41;13.90;;;4.80;;
74808;SDS011;63338;39.544;2.596;2022-11-02T05:40:07;13.18;;;5.63;;
74808;SDS011;63338;39.544;2.596;2022-11-02T05:42:34;19.45;;;5.75;;
74808;SDS011;63338;39.544;2.596;2022-11-02T05:45:00;14.95;;;5.63;;
74808;SDS011;63338;39.544;2.596;2022-11-02T05:47:26;10.80;;;4.93;;
74808;SDS011;63338;39.544;2.596;2022-11-02T05:49:52;12.55;;;5.35;;
74808;SDS011;63338;39.544;2.596;2022-11-02T05:52:18;13.00;;;5.05;;
74808;SDS011;63338;39.544;2.596;2022-11-02T05:54:44;17.63;;;5.68;;
74808;SDS011;63338;39.544;2.596;2022-11-02T05:57:10;14.25;;;5.40;;
74808;SDS011;63338;39.544;2.596;2022-11-02T05:59:36;9.82;;;5.25;;
74808;SDS011;63338;39.544;2.596;2022-11-02T06:02:03;11.38;;;5.28;;
74808;SDS011;63338;39.544;2.596;2022-11-02T06:04:35;14.57;;;6.18;;
74808;SDS011;63338;39.544;2.596;2022-11-02T06:07:13;16.70;;;5.38;;
74808;SDS011;63338;39.544;2.596;2022-11-02T06:09:43;10.25;;;5.55;;
74808;SDS011;63338;39.544;2.596;2022-11-02T06:12:10;16.23;;;5.65;;
74808;SDS011;63338;39.544;2.596;2022-11-02T06:14:36;10.38;;;4.90;;
74808;SDS011;63338;39.544;2.596;2022-11-02T06:17:07;13.98;;;6.00;;
74808;SDS011;63338;39.544;2.596;2022-11-02T06:19:34;15.48;;;5.90;;
74808;SDS011;63338;39.544;2.596;2022-11-02T06:22:03;17.73;;;5.90;;
74808;SDS011;63338;39.544;2.596;2022-11-02T06:24:32;15.57;;;5.82;;
74808;SDS011;63338;39.544;2.596;2022-11-02T06:26:58;13.32;;;6.50;;
74808;SDS011;63338;39.544;2.596;2022-11-02T06:29:24;14.30;;;6.28;;
74808;SDS011;63338;39.544;2.596;2022-11-02T06:31:53;15.30;;;5.45;;
74808;SDS011;63338;39.544;2.596;2022-11-02T06:34:19;14.50;;;6.07;;
74808;SDS011;63338;39.544;2.596;2022-11-02T06:36:51;13.30;;;6.22;;
74808;SDS011;63338;39.544;2.596;2022-11-02T06:39:26;14.65;;;6.03;;
74808;SDS011;63338;39.544;2.596;2022-11-02T06:42:07;20.83;;;6.43;;
74808;SDS011;63338;39.544;2.596;2022-11-02T06:44:44;11.93;;;5.70;;
74808;SDS011;63338;39.544;2.596;2022-11-02T07:25:29;13.98;;;8.07;;
74808;SDS011;63338;39.544;2.596;2022-11-02T07:28:19;18.42;;;7.90;;
74808;SDS011;63338;39.544;2.596;2022-11-02T07:31:11;17.23;;;7.63;;
74808;SDS011;63338;39.544;2.596;2022-11-02T07:33:55;16.55;;;7.85;;
74808;SDS011;63338;39.544;2.596;2022-11-02T07:36:22;15.57;;;8.32;;
74808;SDS011;63338;39.544;2.596;2022-11-02T07:47:20;15.60;;;7.50;;
74808;SDS011;63338;39.544;2.596;2022-11-02T07:49:32;20.63;;;7.65;;
74808;SDS011;63338;39.544;2.596;2022-11-02T17:36:12;20.27;;;6.20;;
74808;SDS011;63338;39.544;2.596;2022-11-02T17:38:48;24.15;;;6.30;;
74808;SDS011;63338;39.544;2.596;2022-11-02T18:29:32;18.63;;;6.63;;
74808;SDS011;63338;39.544;2.596;2022-11-02T18:31:59;16.50;;;6.40;;
74808;SDS011;63338;39.544;2.596;2022-11-02T18:34:28;15.45;;;6.47;;
74808;SDS011;63338;39.544;2.596;2022-11-02T18:36:58;18.85;;;6.90;;
74808;SDS011;63338;39.544;2.596;2022-11-02T18:39:27;13.80;;;6.57;;
74808;SDS011;63338;39.544;2.596;2022-11-02T18:42:05;17.35;;;6.40;;
74808;SDS011;63338;39.544;2.596;2022-11-02T18:44:32;19.70;;;7.45;;
74808;SDS011;63338;39.544;2.596;2022-11-02T18:46:59;17.05;;;7.25;;
74808;SDS011;63338;39.544;2.596;2022-11-02T18:49:26;18.05;;;6.93;;
74808;SDS011;63338;39.544;2.596;2022-11-02T18:51:54;12.68;;;6.82;;
74808;SDS011;63338;39.544;2.596;2022-11-02T18:54:21;15.50;;;7.30;;
74808;SDS011;63338;39.544;2.596;2022-11-02T18:56:48;21.90;;;7.20;;
74808;SDS011;63338;39.544;2.596;2022-11-02T18:59:19;19.40;;;6.90;;
74808;SDS011;63338;39.544;2.596;2022-11-02T19:01:49;21.30;;;7.53;;
74808;SDS011;63338;39.544;2.596;2022-11-02T19:04:19;19.15;;;7.00;;
74808;SDS011;63338;39.544;2.596;2022-11-02T19:10:00;14.88;;;6.30;;
74808;SDS011;63338;39.544;2.596;2022-11-02T19:20:41;16.58;;;7.57;;
74808;SDS011;63338;39.544;2.596;2022-11-02T19:54:59;18.02;;;8.07;;
74808;SDS011;63338;39.544;2.596;2022-11-02T20:04:46;21.38;;;9.52;;
74808;SDS011;63338;39.544;2.596;2022-11-02T20:07:12;20.92;;;9.32;;
74808;SDS011;63338;39.544;2.596;2022-11-02T20:09:41;20.52;;;9.27;;
74808;SDS011;63338;39.544;2.596;2022-11-02T20:12:19;19.30;;;9.27;;
74808;SDS011;63338;39.544;2.596;2022-11-02T20:16:14;23.30;;;8.38;;
74808;SDS011;63338;39.544;2.596;2022-11-02T20:20:16;18.92;;;8.60;;
74808;SDS011;63338;39.544;2.596;2022-11-02T20:36:53;14.80;;;6.85;;
74808;SDS011;63338;39.544;2.596;2022-11-02T20:44:26;13.38;;;7.97;;
74808;SDS011;63338;39.544;2.596;2022-11-02T20:51:23;14.18;;;9.27;;
74808;SDS011;63338;39.544;2.596;2022-11-02T20:55:24;23.33;;;10.95;;
74808;SDS011;63338;39.544;2.596;2022-11-02T21:02:43;14.68;;;7.38;;
74808;SDS011;63338;39.544;2.596;2022-11-02T21:09:16;18.80;;;7.82;;
74808;SDS011;63338;39.544;2.596;2022-11-02T21:11:55;14.98;;;7.40;;
74808;SDS011;63338;39.544;2.596;2022-11-02T21:14:52;15.00;;;7.25;;
74808;SDS011;63338;39.544;2.596;2022-11-02T21:17:34;19.25;;;7.18;;
74808;SDS011;63338;39.544;2.596;2022-11-02T21:20:03;14.30;;;7.60;;
74808;SDS011;63338;39.544;2.596;2022-11-02T21:23:03;14.75;;;7.40;;
74808;SDS011;63338;39.544;2.596;2022-11-02T21:25:58;13.07;;;6.88;;
74808;SDS011;63338;39.544;2.596;2022-11-02T21:28:55;16.35;;;8.27;;
74808;SDS011;63338;39.544;2.596;2022-11-02T21:32:07;17.17;;;8.13;;
74808;SDS011;63338;39.544;2.596;2022-11-02T21:35:42;15.38;;;8.15;;
74808;SDS011;63338;39.544;2.596;2022-11-02T21:38:12;15.45;;;7.68;;
74808;SDS011;63338;39.544;2.596;2022-11-02T21:40:38;17.42;;;7.38;;
74808;SDS011;63338;39.544;2.596;2022-11-02T21:43:06;14.93;;;7.45;;
74808;SDS011;63338;39.544;2.596;2022-11-02T21:45:32;14.50;;;7.22;;
74808;SDS011;63338;39.544;2.596;2022-11-02T21:47:58;18.35;;;9.57;;
74808;SDS011;63338;39.544;2.596;2022-11-02T21:50:24;17.63;;;8.68;;
74808;SDS011;63338;39.544;2.596;2022-11-02T21:52:52;15.20;;;7.50;;
74808;SDS011;63338;39.544;2.596;2022-11-02T22:07:30;14.07;;;6.95;;
74808;SDS011;63338;39.544;2.596;2022-11-02T22:15:00;12.00;;;6.72;;
74808;SDS011;63338;39.544;2.596;2022-11-02T22:18:03;14.13;;;7.60;;
74808;SDS011;63338;39.544;2.596;2022-11-02T22:24:27;16.48;;;7.78;;
74808;SDS011;63338;39.544;2.596;2022-11-02T22:30:33;17.33;;;7.90;;
74808;SDS011;63338;39.544;2.596;2022-11-02T22:33:34;16.25;;;6.95;;
74808;SDS011;63338;39.544;2.596;2022-11-02T22:36:14;13.98;;;7.57;;
74808;SDS011;63338;39.544;2.596;2022-11-02T22:38:48;14.85;;;7.22;;
74808;SDS011;63338;39.544;2.596;2022-11-02T22:41:31;14.02;;;7.28;;
74808;SDS011;63338;39.544;2.596;2022-11-02T22:46:46;15.23;;;8.10;;
74808;SDS011;63338;39.544;2.596;2022-11-02T22:49:17;15.43;;;7.40;;
74808;SDS011;63338;39.544;2.596;2022-11-02T22:51:52;15.30;;;7.75;;
74808;SDS011;63338;39.544;2.596;2022-11-02T22:54:21;14.05;;;7.55;;
74808;SDS011;63338;39.544;2.596;2022-11-02T22:56:47;13.27;;;8.13;;
74808;SDS011;63338;39.544;2.596;2022-11-02T22:59:14;15.40;;;7.10;;
74808;SDS011;63338;39.544;2.596;2022-11-02T23:01:53;15.52;;;6.82;;
74808;SDS011;63338;39.544;2.596;2022-11-02T23:04:27;11.98;;;7.00;;
74808;SDS011;63338;39.544;2.596;2022-11-02T23:07:00;18.95;;;7.70;;
74808;SDS011;63338;39.544;2.596;2022-11-02T23:09:29;18.15;;;7.75;;
74808;SDS011;63338;39.544;2.596;2022-11-02T23:12:02;13.07;;;7.03;;
74808;SDS011;63338;39.544;2.596;2022-11-02T23:14:44;15.82;;;7.38;;
74808;SDS011;63338;39.544;2.596;2022-11-02T23:17:12;18.55;;;7.00;;
74808;SDS011;63338;39.544;2.596;2022-11-02T23:19:38;14.30;;;7.25;;
74808;SDS011;63338;39.544;2.596;2022-11-02T23:22:09;16.40;;;6.82;;
74808;SDS011;63338;39.544;2.596;2022-11-02T23:24:55;14.30;;;7.13;;
74808;SDS011;63338;39.544;2.596;2022-11-02T23:30:38;13.25;;;6.93;;
74808;SDS011;63338;39.544;2.596;2022-11-02T23:33:32;14.00;;;6.60;;
74808;SDS011;63338;39.544;2.596;2022-11-02T23:36:04;11.38;;;6.88;;
74808;SDS011;63338;39.544;2.596;2022-11-02T23:38:37;15.23;;;7.72;;
74808;SDS011;63338;39.544;2.596;2022-11-02T23:41:23;14.98;;;6.68;;
74808;SDS011;63338;39.544;2.596;2022-11-02T23:43:59;15.95;;;7.35;;
74808;SDS011;63338;39.544;2.596;2022-11-02T23:46:44;13.25;;;7.57;;
74808;SDS011;63338;39.544;2.596;2022-11-02T23:49:18;15.30;;;6.88;;
74808;SDS011;63338;39.544;2.596;2022-11-02T23:51:45;17.65;;;8.02;;
74808;SDS011;63338;39.544;2.596;2022-11-02T23:54:30;15.25;;;7.13;;
74808;SDS011;63338;39.544;2.596;2022-11-02T23:57:14;15.93;;;7.13;;
74808;SDS011;63338;39.544;2.596;2022-11-02T23:59:42;15.77;;;7.47;;
